Portada
METAR-TAF:

METAR-TAF

Aeropuertos :

Halmstad, Suecia

latitud: 56-41N, longitud: 012-50E, altitud: 30 m

Observación

El informe se hizo hace 21 minutos, a las 14:20 UTC
Viento 14 kt del sur
Temperatura 12°C
Humedad 94%
Presión 1001 hPa
Visibilidad 10 km o más
Cielo nuboso a una altura de 1700 ft
lluvia ligera

METAR: ESMT 251420Z 19014KT 9999 -RA BKN017 12/11 Q1001

Hora: 15:41 (14:41 UTC)

Pronóstico

El informe se hizo hace 34 minutos, a las 14:07 UTC
Pronóstico válido del 25 a las 15 UTC al 25 a las 21 UTC
Viento 15 kt del sur
Visibilidad 10 km o más
Cielo nuboso a una altura de 2000 ft
lluvia ligera, llovizna
Temporalmente
del 25 a las 15 UTC al 25 a las 21 UTC
Visibilidad: 4000 m
Cielo nuboso a una altura de 1200 ft
lluvia

TAF: ESMT 251407Z 2515/2521 18015KT 9999 -RADZ BKN020 TEMPO 2515/2521 4000 RA BKN012

Observaciones y pronósticos meteorológicos de más de 4000 aeropuertos (mensajes METAR y TAF).

Los puntos amarillos y rojos representan las estaciones disponibles.

Ponga el ratón en el punto deseado para ver el nombre de la estación.

Haga clic para ver las observaciones y los pronósticos meteorológicos.

Para cambiar el mapa : haga clic en los botones verdes con una cruz de color negro para hacer un zoom, en el botón verde con un guión para alejar o en las flechas verdes para mapas adyacentes.


METAR-TAF: